createdAt,value
2022-09-28T00:02:01.527Z,8.55
2022-09-28T00:04:18.456Z,8.51
2022-09-28T00:06:35.769Z,8.50
2022-09-28T00:08:52.740Z,8.51
2022-09-28T00:11:10.931Z,8.50
2022-09-28T00:13:28.214Z,8.46
2022-09-28T00:15:45.158Z,8.46
2022-09-28T00:18:04.865Z,8.49
2022-09-28T00:20:22.943Z,8.51
2022-09-28T00:22:39.949Z,8.50
2022-09-28T00:24:57.149Z,8.50
2022-09-28T00:27:14.464Z,8.52
2022-09-28T00:29:33.613Z,8.54
2022-09-28T00:31:50.545Z,8.56
2022-09-28T00:34:07.852Z,8.55
2022-09-28T00:36:27.535Z,8.56
2022-09-28T00:38:45.765Z,8.56
2022-09-28T00:41:02.774Z,8.56
2022-09-28T00:43:20.256Z,8.59
2022-09-28T00:45:37.427Z,8.61
2022-09-28T00:47:55.739Z,8.61
2022-09-28T00:50:12.756Z,8.60
2022-09-28T00:52:29.712Z,8.60
2022-09-28T00:54:47.012Z,8.63
2022-09-28T00:57:04.041Z,8.60
2022-09-28T00:59:21.086Z,8.59
2022-09-28T01:01:38.153Z,8.61
2022-09-28T01:03:56.372Z,8.58
2022-09-28T01:06:15.621Z,8.58
2022-09-28T01:08:32.548Z,8.55
2022-09-28T01:10:49.539Z,8.56
2022-09-28T01:13:06.456Z,8.63
2022-09-28T01:15:24.847Z,8.62
2022-09-28T01:17:41.796Z,8.60
2022-09-28T01:20:04.392Z,8.58
2022-09-28T01:22:21.348Z,8.60
2022-09-28T01:24:39.839Z,8.61
2022-09-28T01:26:57.063Z,8.63
2022-09-28T01:29:14.357Z,8.66
2022-09-28T01:31:38.967Z,8.66
2022-09-28T01:33:57.116Z,8.65
2022-09-28T01:36:14.944Z,8.65
2022-09-28T01:38:32.000Z,8.65
2022-09-28T01:40:49.062Z,8.67
2022-09-28T01:43:06.321Z,8.73
2022-09-28T01:45:23.322Z,8.72
2022-09-28T01:47:40.571Z,8.68
2022-09-28T01:49:57.806Z,8.67
2022-09-28T01:52:16.091Z,8.68
2022-09-28T01:54:33.295Z,8.67
2022-09-28T01:56:50.213Z,8.67
2022-09-28T01:59:07.202Z,8.71
2022-09-28T02:01:24.499Z,8.70
2022-09-28T02:03:42.787Z,8.68
2022-09-28T02:06:02.834Z,8.69
2022-09-28T02:08:19.883Z,8.69
2022-09-28T02:10:36.951Z,8.63
2022-09-28T02:12:54.035Z,8.58
2022-09-28T02:15:11.079Z,8.52
2022-09-28T02:17:31.460Z,8.46
2022-09-28T02:19:48.392Z,8.40
2022-09-28T02:22:05.655Z,8.38
2022-09-28T02:24:22.704Z,8.34
2022-09-28T02:26:39.936Z,8.33
2022-09-28T02:28:57.204Z,8.31
2022-09-28T02:31:14.568Z,8.31
2022-09-28T02:33:31.979Z,8.30
2022-09-28T02:35:49.069Z,8.33
2022-09-28T02:38:07.004Z,8.36
2022-09-28T02:40:24.118Z,8.42
2022-09-28T02:42:41.283Z,8.40
2022-09-28T02:44:58.508Z,8.36
2022-09-28T02:47:15.474Z,8.41
2022-09-28T02:49:32.574Z,8.38
2022-09-28T02:51:49.900Z,8.36
2022-09-28T02:54:07.507Z,8.41
2022-09-28T02:56:24.531Z,8.36
2022-09-28T02:58:41.801Z,8.36
2022-09-28T03:00:58.910Z,8.34
2022-09-28T03:03:17.161Z,8.36
2022-09-28T03:05:34.205Z,8.35
2022-09-28T03:07:51.370Z,8.29
2022-09-28T03:10:08.316Z,8.28
2022-09-28T03:12:25.256Z,8.23
2022-09-28T03:14:42.401Z,8.21
2022-09-28T03:16:59.459Z,8.17
2022-09-28T03:19:16.831Z,8.20
2022-09-28T03:21:35.130Z,8.20
2022-09-28T03:23:52.116Z,8.20
2022-09-28T03:26:10.131Z,8.24
2022-09-28T03:28:27.370Z,8.28
2022-09-28T03:30:44.652Z,8.29
2022-09-28T03:33:02.631Z,8.33
2022-09-28T03:35:19.914Z,8.36
2022-09-28T03:37:37.035Z,8.39
2022-09-28T03:39:54.296Z,8.43
2022-09-28T03:42:11.282Z,8.43
2022-09-28T03:44:29.430Z,8.46
2022-09-28T03:46:46.708Z,8.45
2022-09-28T03:49:04.712Z,8.54
2022-09-28T03:51:21.936Z,8.52
2022-09-28T03:53:39.150Z,8.53
2022-09-28T03:55:56.201Z,8.54
2022-09-28T03:58:13.443Z,8.54
2022-09-28T04:00:31.472Z,8.55
2022-09-28T04:02:48.425Z,8.56
2022-09-28T04:05:05.745Z,8.59
2022-09-28T04:07:22.670Z,8.60
2022-09-28T04:09:39.695Z,8.62
2022-09-28T04:12:03.988Z,8.65
2022-09-28T04:14:21.600Z,8.65
2022-09-28T04:16:38.673Z,8.65
2022-09-28T04:18:55.890Z,8.66
2022-09-28T04:21:12.992Z,8.66
2022-09-28T04:23:29.962Z,8.66
2022-09-28T04:25:46.940Z,8.67
2022-09-28T04:28:03.976Z,8.67
2022-09-28T04:30:21.014Z,8.69
2022-09-28T04:32:38.282Z,8.69
2022-09-28T04:34:55.574Z,8.70
2022-09-28T04:37:13.922Z,8.71
2022-09-28T04:39:31.204Z,8.71
2022-09-28T04:41:48.455Z,8.71
2022-09-28T04:44:05.457Z,8.70
2022-09-28T04:46:23.731Z,8.70
2022-09-28T04:48:40.917Z,8.71
2022-09-28T04:50:57.882Z,8.71
2022-09-28T04:53:15.867Z,8.67
2022-09-28T04:55:33.099Z,8.61
2022-09-28T04:57:50.433Z,8.53
2022-09-28T05:00:07.482Z,8.52
2022-09-28T05:02:24.441Z,8.54
2022-09-28T05:04:41.340Z,8.50
2022-09-28T05:06:59.075Z,8.41
2022-09-28T05:09:16.126Z,8.39
2022-09-28T05:11:33.613Z,8.31
2022-09-28T05:13:50.626Z,8.26
2022-09-28T05:16:07.947Z,8.19
2022-09-28T05:18:25.018Z,8.22
2022-09-28T05:20:41.994Z,8.19
2022-09-28T05:22:59.025Z,8.18
2022-09-28T05:25:16.065Z,8.17
2022-09-28T05:27:33.512Z,8.16
2022-09-28T05:29:51.475Z,8.22
2022-09-28T05:32:08.505Z,8.19
2022-09-28T05:34:25.651Z,8.20
2022-09-28T05:36:43.631Z,8.18
2022-09-28T05:39:00.670Z,8.25
2022-09-28T05:41:17.959Z,8.35
2022-09-28T05:43:34.839Z,8.31
2022-09-28T05:45:55.806Z,8.30
2022-09-28T05:48:13.013Z,8.28
2022-09-28T05:50:29.983Z,8.36
2022-09-28T05:52:46.877Z,8.40
2022-09-28T05:55:03.865Z,8.34
2022-09-28T05:57:20.796Z,8.35
2022-09-28T05:59:37.788Z,8.32
2022-09-28T06:01:55.029Z,8.26
2022-09-28T06:04:13.003Z,8.29
2022-09-28T06:06:30.299Z,8.35
2022-09-28T06:08:47.418Z,8.29
2022-09-28T06:11:05.174Z,8.22
2022-09-28T06:13:22.504Z,8.23
2022-09-28T06:15:39.810Z,8.17
2022-09-28T06:17:57.078Z,8.11
2022-09-28T06:20:14.056Z,8.07
2022-09-28T06:22:32.010Z,8.03
2022-09-28T06:24:49.914Z,7.96
2022-09-28T06:27:06.916Z,7.95
2022-09-28T06:29:25.350Z,7.93
2022-09-28T06:31:42.622Z,7.89
2022-09-28T06:34:00.935Z,7.90
2022-09-28T06:36:17.890Z,7.90
2022-09-28T06:38:34.899Z,7.94
2022-09-28T06:40:52.238Z,7.96
2022-09-28T06:43:10.320Z,8.02
2022-09-28T06:45:27.411Z,8.04
2022-09-28T06:47:44.652Z,8.05
2022-09-28T06:50:02.178Z,8.07
2022-09-28T06:52:20.192Z,8.09
2022-09-28T06:54:37.460Z,8.11
2022-09-28T06:56:54.696Z,8.15
2022-09-28T06:59:11.722Z,8.17
2022-09-28T07:01:29.033Z,8.22
2022-09-28T07:03:46.001Z,8.28
2022-09-28T07:06:02.877Z,8.33
2022-09-28T07:08:21.096Z,8.39
2022-09-28T07:10:40.496Z,8.45
2022-09-28T07:12:58.660Z,8.47
2022-09-28T07:15:15.578Z,8.57
2022-09-28T07:17:40.013Z,8.72
2022-09-28T07:20:17.429Z,8.83
2022-09-28T07:22:42.929Z,8.98
2022-09-28T07:25:01.075Z,9.13
2022-09-28T07:27:18.105Z,9.28
2022-09-28T07:29:35.144Z,9.42
2022-09-28T07:31:52.174Z,9.57
2022-09-28T07:34:09.459Z,9.60
2022-09-28T07:36:27.393Z,9.57
2022-09-28T07:38:44.322Z,9.57
2022-09-28T07:41:01.565Z,9.59
2022-09-28T07:43:18.674Z,9.57
2022-09-28T07:45:35.945Z,9.57
2022-09-28T07:47:53.048Z,9.56
2022-09-28T07:50:11.396Z,9.60
2022-09-28T07:52:28.417Z,9.68
2022-09-28T07:54:45.658Z,9.74
2022-09-28T07:57:02.678Z,9.75
2022-09-28T07:59:19.926Z,9.81
2022-09-28T08:01:37.342Z,9.83
2022-09-28T08:03:54.429Z,9.91
2022-09-28T08:06:11.418Z,9.95
2022-09-28T08:08:28.583Z,9.98
2022-09-28T08:10:47.703Z,10.01
2022-09-28T08:13:06.539Z,10.06
2022-09-28T08:15:25.610Z,10.28
2022-09-28T08:17:43.513Z,10.37
2022-09-28T08:20:00.896Z,10.47
2022-09-28T08:22:18.100Z,10.60
2022-09-28T08:24:35.095Z,10.74
2022-09-28T08:26:52.445Z,10.88
2022-09-28T08:29:12.884Z,10.99
2022-09-28T08:31:29.787Z,10.98
2022-09-28T08:33:47.843Z,11.17
2022-09-28T08:36:06.087Z,11.39
2022-09-28T08:38:23.031Z,11.54
2022-09-28T08:40:40.392Z,11.59
2022-09-28T08:42:57.685Z,11.60
2022-09-28T08:45:14.931Z,11.74
2022-09-28T08:47:31.843Z,11.90
2022-09-28T08:49:48.832Z,11.98
2022-09-28T08:52:06.749Z,12.22
2022-09-28T08:54:23.795Z,12.35
2022-09-28T08:56:40.686Z,12.43
2022-09-28T08:58:57.560Z,12.64
2022-09-28T09:01:14.627Z,12.83
2022-09-28T09:03:31.897Z,12.94
2022-09-28T09:05:49.226Z,13.18
2022-09-28T09:08:06.240Z,13.37
2022-09-28T09:10:23.200Z,13.41
2022-09-28T09:12:40.393Z,13.57
2022-09-28T09:14:57.439Z,13.67
2022-09-28T09:17:15.674Z,13.51
2022-09-28T09:19:34.375Z,13.38
2022-09-28T09:21:51.409Z,13.34
2022-09-28T09:24:09.912Z,13.13
2022-09-28T09:26:27.852Z,13.11
2022-09-28T09:28:45.244Z,12.93
2022-09-28T09:31:02.316Z,12.94
2022-09-28T09:33:19.400Z,13.10
2022-09-28T09:35:36.435Z,12.98
2022-09-28T09:37:58.354Z,12.93
2022-09-28T09:40:17.180Z,12.99
2022-09-28T09:42:35.350Z,13.08
2022-09-28T09:44:52.381Z,12.94
2022-09-28T09:47:10.434Z,12.91
2022-09-28T09:49:27.574Z,12.84
2022-09-28T09:51:44.591Z,12.69
2022-09-28T09:54:01.727Z,12.60
2022-09-28T09:56:18.802Z,12.51
2022-09-28T09:58:37.600Z,12.45
2022-09-28T10:00:54.950Z,12.51
2022-09-28T10:03:11.989Z,12.65
2022-09-28T10:05:28.931Z,12.89
2022-09-28T10:07:46.087Z,12.93
2022-09-28T10:10:03.030Z,12.92
2022-09-28T10:12:21.378Z,12.84
2022-09-28T10:14:38.439Z,12.85
2022-09-28T10:16:55.438Z,12.69
2022-09-28T10:19:12.774Z,12.66
2022-09-28T10:21:30.079Z,12.68
2022-09-28T10:23:47.323Z,12.66
2022-09-28T10:26:05.313Z,12.48
2022-09-28T10:28:22.527Z,12.46
2022-09-28T10:30:39.536Z,12.85
2022-09-28T10:32:56.596Z,13.19
2022-09-28T10:35:13.613Z,13.42
2022-09-28T10:37:30.950Z,13.53
2022-09-28T10:39:48.256Z,13.55
2022-09-28T10:42:06.270Z,13.47
2022-09-28T10:44:23.244Z,13.46
2022-09-28T10:46:40.205Z,13.35
2022-09-28T10:48:57.605Z,13.27
2022-09-28T10:51:14.631Z,13.52
2022-09-28T10:53:31.945Z,13.64
2022-09-28T10:55:49.078Z,13.53
2022-09-28T10:58:06.135Z,13.52
2022-09-28T11:00:23.149Z,13.57
2022-09-28T11:02:41.283Z,13.48
2022-09-28T11:04:58.247Z,13.46
2022-09-28T11:07:17.306Z,13.50
2022-09-28T11:09:34.492Z,13.71
2022-09-28T11:11:51.486Z,13.88
2022-09-28T11:14:08.548Z,14.16
2022-09-28T11:16:26.009Z,14.60
2022-09-28T11:18:43.860Z,15.12
2022-09-28T11:21:00.851Z,15.29
2022-09-28T11:23:18.923Z,15.20
2022-09-28T11:25:36.225Z,14.73
2022-09-28T11:27:53.517Z,14.87
2022-09-28T11:30:10.765Z,14.56
2022-09-28T11:32:27.735Z,14.41
2022-09-28T11:34:58.546Z,14.23
2022-09-28T11:37:18.056Z,13.90
2022-09-28T11:39:36.157Z,13.91
2022-09-28T11:41:53.512Z,13.83
2022-09-28T11:44:10.598Z,13.93
2022-09-28T11:46:28.081Z,13.94
2022-09-28T11:48:46.352Z,13.82
2022-09-28T11:51:03.376Z,13.82
2022-09-28T11:53:20.473Z,13.68
2022-09-28T11:55:37.767Z,13.81
2022-09-28T11:57:55.735Z,13.78
2022-09-28T12:00:12.659Z,13.86
2022-09-28T12:02:30.118Z,13.83
2022-09-28T12:04:47.122Z,13.86
2022-09-28T12:07:04.144Z,13.93
2022-09-28T12:09:21.435Z,13.94
2022-09-28T12:11:40.161Z,14.06
2022-09-28T12:13:57.291Z,14.12
2022-09-28T12:18:52.223Z,14.73
2022-09-28T12:21:09.174Z,15.06
2022-09-28T12:23:26.316Z,15.20
2022-09-28T12:25:43.773Z,15.21
2022-09-28T12:28:01.399Z,15.26
2022-09-28T12:30:22.092Z,15.17
2022-09-28T12:32:41.903Z,14.87
2022-09-28T12:34:58.887Z,14.82
2022-09-28T12:37:18.766Z,14.72
2022-09-28T12:39:56.319Z,14.66
2022-09-28T12:42:13.135Z,14.52
2022-09-28T12:44:30.179Z,14.43
2022-09-28T12:46:47.173Z,14.34
2022-09-28T12:49:51.452Z,14.34
2022-09-28T12:51:45.255Z,14.29
2022-09-28T12:54:03.339Z,14.29
2022-09-28T12:56:21.773Z,14.35
2022-09-28T12:58:39.053Z,14.41
2022-09-28T13:00:57.565Z,14.57
2022-09-28T13:03:19.500Z,14.65
2022-09-28T13:05:36.448Z,14.72
2022-09-28T13:07:53.797Z,14.87
2022-09-28T13:10:10.791Z,15.11
2022-09-28T13:12:28.833Z,15.02
2022-09-28T13:14:47.239Z,15.02
2022-09-28T13:17:04.571Z,14.90
2022-09-28T13:19:22.828Z,14.91
2022-09-28T13:21:39.822Z,14.91
2022-09-28T13:24:08.706Z,14.79
2022-09-28T13:26:37.179Z,14.69
2022-09-28T13:28:54.317Z,14.49
2022-09-28T13:31:11.269Z,14.45
2022-09-28T13:33:28.647Z,14.38
2022-09-28T13:35:45.714Z,14.32
2022-09-28T13:38:03.131Z,14.30
2022-09-28T13:40:20.511Z,14.34
2022-09-28T13:42:38.494Z,14.15
2022-09-28T13:44:56.000Z,14.19
2022-09-28T13:47:16.060Z,14.18
2022-09-28T13:49:35.847Z,14.15
2022-09-28T13:51:52.787Z,14.17
2022-09-28T13:54:10.075Z,14.17
2022-09-28T13:56:27.348Z,14.31
2022-09-28T13:58:44.374Z,14.38
2022-09-28T14:01:01.704Z,14.36
2022-09-28T14:03:18.705Z,14.48
2022-09-28T14:05:35.998Z,14.41
2022-09-28T14:07:56.609Z,14.45
2022-09-28T14:10:14.565Z,14.54
2022-09-28T14:12:31.480Z,14.60
2022-09-28T14:14:48.551Z,14.56
2022-09-28T14:17:05.679Z,14.57
2022-09-28T14:19:24.220Z,14.49
2022-09-28T14:21:41.252Z,14.49
2022-09-28T14:23:59.877Z,14.39
2022-09-28T14:26:17.079Z,14.28
2022-09-28T14:28:34.452Z,14.13
2022-09-28T14:30:51.918Z,14.10
2022-09-28T14:33:08.872Z,14.11
2022-09-28T14:35:29.413Z,14.15
2022-09-28T14:37:46.323Z,14.07
2022-09-28T14:40:03.277Z,14.03
2022-09-28T14:42:20.409Z,14.09
2022-09-28T14:44:37.661Z,14.05
2022-09-28T14:46:55.760Z,14.05
2022-09-28T14:49:12.749Z,14.03
2022-09-28T14:51:29.691Z,13.97
2022-09-28T14:53:46.710Z,13.99
2022-09-28T14:56:03.774Z,13.94
2022-09-28T14:58:22.649Z,13.95
2022-09-28T15:00:40.192Z,13.94
2022-09-28T15:02:58.149Z,13.96
2022-09-28T15:05:15.224Z,14.05
2022-09-28T15:07:33.426Z,14.03
2022-09-28T15:09:51.878Z,14.01
2022-09-28T15:12:12.239Z,13.93
2022-09-28T15:14:29.391Z,13.94
2022-09-28T15:16:47.503Z,13.91
2022-09-28T15:19:04.602Z,13.98
2022-09-28T15:21:22.879Z,14.10
2022-09-28T15:23:40.154Z,14.06
2022-09-28T15:25:58.141Z,14.02
2022-09-28T15:28:15.122Z,14.02
2022-09-28T15:30:32.161Z,13.98
2022-09-28T15:32:49.297Z,13.96
2022-09-28T15:35:06.477Z,13.93
2022-09-28T15:37:24.953Z,13.92
2022-09-28T15:39:42.030Z,13.88
2022-09-28T15:41:59.114Z,13.85
2022-09-28T15:44:16.131Z,13.86
2022-09-28T15:46:33.666Z,13.83
2022-09-28T15:48:53.877Z,13.79
2022-09-28T15:51:11.043Z,13.75
2022-09-28T15:53:28.102Z,13.69
2022-09-28T15:55:45.112Z,13.64
2022-09-28T15:58:04.027Z,13.62
2022-09-28T16:00:20.986Z,13.60
2022-09-28T16:02:38.111Z,13.62
2022-09-28T16:04:55.108Z,13.53
2022-09-28T16:07:14.205Z,13.54
2022-09-28T16:09:34.623Z,13.52
2022-09-28T16:11:56.826Z,13.48
2022-09-28T16:14:13.770Z,13.45
2022-09-28T16:16:31.187Z,13.42
2022-09-28T16:18:48.447Z,13.36
2022-09-28T16:21:05.783Z,13.32
2022-09-28T16:23:23.091Z,13.21
2022-09-28T16:25:40.457Z,13.09
2022-09-28T16:27:57.899Z,13.01
2022-09-28T16:30:16.217Z,12.94
2022-09-28T16:32:33.873Z,12.88
2022-09-28T16:34:51.078Z,12.85
2022-09-28T16:37:08.379Z,12.82
2022-09-28T16:39:25.383Z,12.76
2022-09-28T16:41:42.308Z,12.72
2022-09-28T16:44:00.386Z,12.68
2022-09-28T16:46:17.742Z,12.59
2022-09-28T16:48:35.224Z,12.50
2022-09-28T16:50:52.523Z,12.44
2022-09-28T16:53:09.497Z,12.39
2022-09-28T16:55:43.135Z,12.26
2022-09-28T16:58:00.408Z,12.09
2022-09-28T17:00:18.670Z,11.96
2022-09-28T17:02:46.441Z,11.92
2022-09-28T17:05:04.371Z,11.88
2022-09-28T17:07:21.508Z,11.82
2022-09-28T17:09:39.840Z,11.78
2022-09-28T17:11:58.421Z,11.72
2022-09-28T17:14:15.481Z,11.69
2022-09-28T17:16:58.224Z,11.63
2022-09-28T17:19:09.830Z,11.64
2022-09-28T17:21:26.873Z,11.57
2022-09-28T17:23:44.054Z,11.52
2022-09-28T17:26:03.023Z,11.50
2022-09-28T17:28:20.544Z,11.44
2022-09-28T17:30:37.797Z,11.40
2022-09-28T17:32:54.841Z,11.34
2022-09-28T17:35:24.153Z,11.31
2022-09-28T17:37:41.784Z,11.23
2022-09-28T17:39:59.660Z,11.20
2022-09-28T17:42:16.686Z,11.13
2022-09-28T17:44:33.664Z,11.07
2022-09-28T17:46:51.008Z,11.05
2022-09-28T17:49:08.277Z,11.03
2022-09-28T17:51:25.270Z,10.96
2022-09-28T17:53:43.549Z,10.94
2022-09-28T17:56:00.801Z,10.90
2022-09-28T17:58:18.710Z,10.85
2022-09-28T18:00:36.577Z,10.80
2022-09-28T18:02:53.636Z,10.80
2022-09-28T18:05:10.984Z,10.77
2022-09-28T18:07:28.459Z,10.73
2022-09-28T18:09:46.383Z,10.69
2022-09-28T18:12:03.278Z,10.68
2022-09-28T18:14:20.235Z,10.64
2022-09-28T18:16:38.575Z,10.59
2022-09-28T18:18:55.791Z,10.56
2022-09-28T18:21:12.768Z,10.52
2022-09-28T18:23:29.703Z,10.53
2022-09-28T18:25:47.712Z,10.51
2022-09-28T18:28:04.741Z,10.48
2022-09-28T18:30:21.973Z,10.44
2022-09-28T18:32:40.209Z,10.43
2022-09-28T18:34:57.193Z,10.40
2022-09-28T18:37:14.312Z,10.39
2022-09-28T18:39:35.200Z,10.40
2022-09-28T18:41:52.570Z,10.36
2022-09-28T18:44:09.578Z,10.34
2022-09-28T18:46:26.632Z,10.33
2022-09-28T18:48:43.926Z,10.29
2022-09-28T18:51:00.903Z,10.30
2022-09-28T18:53:18.157Z,10.30
2022-09-28T18:55:36.501Z,10.35
2022-09-28T18:57:53.524Z,10.31
2022-09-28T19:00:10.756Z,10.28
2022-09-28T19:02:28.888Z,10.27
2022-09-28T19:04:46.175Z,10.25
2022-09-28T19:07:03.188Z,10.22
2022-09-28T19:09:20.487Z,10.16
2022-09-28T19:11:37.837Z,10.14
2022-09-28T19:13:55.065Z,10.12
2022-09-28T19:16:12.044Z,10.11
2022-09-28T19:18:29.171Z,10.10
2022-09-28T19:20:46.443Z,10.09
2022-09-28T19:23:03.724Z,10.14
2022-09-28T19:25:20.939Z,10.10
2022-09-28T19:27:39.708Z,10.08
2022-09-28T19:29:56.910Z,10.06
2022-09-28T19:32:13.891Z,10.04
2022-09-28T19:34:31.082Z,10.04
2022-09-28T19:36:48.323Z,10.04
2022-09-28T19:39:05.352Z,9.99
2022-09-28T19:41:22.666Z,10.00
2022-09-28T19:43:39.583Z,9.98
2022-09-28T19:45:56.593Z,9.95
2022-09-28T19:48:13.593Z,9.92
2022-09-28T19:50:30.584Z,9.91
2022-09-28T19:52:47.596Z,9.89
2022-09-28T19:55:04.495Z,9.90
2022-09-28T19:57:21.531Z,9.91
2022-09-28T19:59:40.470Z,9.89
2022-09-28T20:01:58.754Z,9.91
2022-09-28T20:04:15.844Z,9.92
2022-09-28T20:06:33.096Z,9.91
2022-09-28T20:08:52.739Z,9.85
2022-09-28T20:11:09.745Z,9.81
2022-09-28T20:13:26.717Z,9.78
2022-09-28T20:15:43.999Z,9.78
2022-09-28T20:18:00.948Z,9.76
2022-09-28T20:20:18.043Z,9.75
2022-09-28T20:22:34.970Z,9.75
2022-09-28T20:24:53.157Z,9.76
2022-09-28T20:27:11.148Z,9.73
2022-09-28T20:29:28.126Z,9.71
2022-09-28T20:31:45.100Z,9.72
2022-09-28T20:34:02.523Z,9.72
2022-09-28T20:36:19.487Z,9.71
2022-09-28T20:38:36.471Z,9.71
2022-09-28T20:40:53.795Z,9.74
2022-09-28T20:43:11.039Z,9.72
2022-09-28T20:45:27.993Z,9.65
2022-09-28T20:47:45.137Z,9.61
2022-09-28T20:50:04.460Z,9.57
2022-09-28T20:52:21.434Z,9.57
2022-09-28T20:54:38.674Z,9.57
2022-09-28T20:56:55.818Z,9.57
2022-09-28T20:59:13.327Z,9.60
2022-09-28T21:01:31.601Z,9.60
2022-09-28T21:03:48.822Z,9.61
2022-09-28T21:06:08.794Z,9.60
2022-09-28T21:08:28.957Z,9.60
2022-09-28T21:10:45.912Z,9.62
2022-09-28T21:13:06.299Z,9.57
2022-09-28T21:15:23.385Z,9.51
2022-09-28T21:17:40.700Z,9.48
2022-09-28T21:20:00.134Z,9.43
2022-09-28T21:22:18.367Z,9.41
2022-09-28T21:24:36.601Z,9.38
2022-09-28T21:26:54.191Z,9.37
2022-09-28T21:29:11.372Z,9.40
2022-09-28T21:31:29.427Z,9.41
2022-09-28T21:33:46.865Z,9.33
2022-09-28T21:36:03.737Z,9.30
2022-09-28T21:38:20.961Z,9.26
2022-09-28T21:40:38.221Z,9.26
2022-09-28T21:42:55.238Z,9.27
2022-09-28T21:45:12.522Z,9.25
2022-09-28T21:47:30.708Z,9.21
2022-09-28T21:49:47.692Z,9.17
2022-09-28T21:52:05.558Z,9.15
2022-09-28T21:54:22.768Z,9.12
2022-09-28T21:56:41.006Z,9.08
2022-09-28T21:58:58.944Z,9.05
2022-09-28T22:01:15.922Z,9.05
2022-09-28T22:03:33.210Z,9.00
2022-09-28T22:05:50.252Z,8.98
2022-09-28T22:08:07.436Z,8.95
2022-09-28T22:10:24.714Z,8.94
2022-09-28T22:12:42.006Z,8.91
2022-09-28T22:15:00.227Z,8.89
2022-09-28T22:17:17.601Z,8.86
2022-09-28T22:19:34.823Z,8.86
2022-09-28T22:21:53.000Z,8.83
2022-09-28T22:24:10.987Z,8.79
2022-09-28T22:26:27.900Z,8.75
2022-09-28T22:28:44.847Z,8.75
2022-09-28T22:31:02.192Z,8.75
2022-09-28T22:33:19.476Z,8.76
2022-09-28T22:35:36.648Z,8.79
2022-09-28T22:37:53.704Z,8.79
2022-09-28T22:40:10.683Z,8.75
2022-09-28T22:42:27.607Z,8.72
2022-09-28T22:44:45.579Z,8.71
2022-09-28T22:47:02.791Z,8.71
2022-09-28T22:49:19.768Z,8.69
2022-09-28T22:51:37.197Z,8.68
2022-09-28T22:53:54.398Z,8.63
2022-09-28T22:56:15.978Z,8.60
2022-09-28T22:58:35.372Z,8.56
2022-09-28T23:00:52.431Z,8.48
2022-09-28T23:03:09.695Z,8.41
2022-09-28T23:05:27.010Z,8.39
2022-09-28T23:07:43.984Z,8.34
2022-09-28T23:10:05.456Z,8.30
2022-09-28T23:12:22.726Z,8.22
2022-09-28T23:14:40.748Z,8.16
2022-09-28T23:16:57.783Z,8.11
2022-09-28T23:19:17.165Z,8.03
2022-09-28T23:21:34.605Z,7.96
2022-09-28T23:23:52.761Z,7.89
2022-09-28T23:26:10.034Z,7.83
2022-09-28T23:28:27.217Z,7.80
2022-09-28T23:30:44.240Z,7.72
2022-09-28T23:33:01.209Z,7.67
2022-09-28T23:35:18.290Z,7.59
2022-09-28T23:37:35.286Z,7.55
2022-09-28T23:39:52.545Z,7.50
2022-09-28T23:42:09.770Z,7.47
2022-09-28T23:44:26.791Z,7.43
2022-09-28T23:46:43.746Z,7.40
2022-09-28T23:49:00.740Z,7.35
2022-09-28T23:51:17.915Z,7.28
2022-09-28T23:53:34.797Z,7.20
2022-09-28T23:55:51.752Z,7.11
2022-09-28T23:58:08.962Z,7.05
